Terminal Aerodrome Forecast
Issued by NWS Cleveland, OH

Home | Current Version | Previous Version | Text Only | Print | Product List | Glossary Off
Versions: 1 2 3 4 5 6 7 8 9 10 11 12 13 14 15 16 17 18 19

000
FTUS41 KCLE 221100
TAFCAK
TAF
KCAK 221137Z 2212/2312 VRB03KT 5SM HZ SKC
     FM221400 22006KT P6SM SCT040
     FM221800 22008KT P6SM BKN050
     FM222300 20006KT P6SM SCT250
     FM231000 22008KT P6SM BKN100=

USA.gov is the U.S. government's official web portal to all federal, state and local government web resources and services.